Time;durP1;ratioP1;P1;durP2;ratioP2;P2;SDS_P1;SDS_P2;PMS_P1;PMS_P2;Temp;Humidity;BMP_temperature;BMP_pressure;BME280_temperature;BME280_humidity;BME280_pressure;Samples;Min_cycle;Max_cycle;Signal;HPM_P1;HPM_P2
2022/03/02 00:02:10;;;;;;;;;62.75;48.50;;;;;5.78;88.17;102627.94;5011868;28;11623;-71
2022/03/02 00:04:37;;;;;;;;;55.75;43.00;;;;;5.84;87.89;102632.84;5031090;28;11613;-71
2022/03/02 00:07:03;;;;;;;;;60.75;47.50;;;;;5.84;88.04;102630.16;5029474;28;11646;-71
2022/03/02 00:09:30;;;;;;;;;54.25;47.75;;;;;5.82;87.64;102636.63;5020529;28;11635;-71
2022/03/02 00:11:58;;;;;;;;;54.75;45.00;;;;;5.84;87.75;102640.91;5009057;28;11637;-71
2022/03/02 00:14:24;;;;;;;;;62.50;49.00;;;;;5.77;87.01;102636.97;4988266;28;11663;-71
2022/03/02 00:16:50;;;;;;;;;57.50;47.50;;;;;5.84;87.12;102638.22;5012848;28;11707;-71
2022/03/02 00:19:18;;;;;;;;;49.75;41.25;;;;;5.74;86.51;102636.34;5030465;28;11601;-71
2022/03/02 00:21:44;;;;;;;;;56.75;46.50;;;;;5.82;86.75;102642.84;5006107;28;11720;-71
2022/03/02 00:24:11;;;;;;;;;45.00;37.25;;;;;5.90;86.45;102644.13;5027539;28;11621;-71
2022/03/02 00:26:38;;;;;;;;;43.75;37.00;;;;;5.97;86.33;102640.03;5030490;28;12420;-71
2022/03/02 00:29:05;;;;;;;;;37.50;35.25;;;;;5.98;85.92;102639.91;5007945;28;12532;-71
2022/03/02 00:31:32;;;;;;;;;50.50;41.75;;;;;5.98;84.67;102641.75;5005750;28;11604;-71
2022/03/02 00:33:59;;;;;;;;;41.00;33.50;;;;;6.01;84.19;102637.00;5013070;28;11615;-71
2022/03/02 00:36:25;;;;;;;;;39.50;36.25;;;;;6.02;83.43;102645.91;5011821;28;11633;-71
2022/03/02 00:38:52;;;;;;;;;43.25;39.00;;;;;6.00;83.35;102632.59;5012758;28;11743;-71
2022/03/02 00:41:19;;;;;;;;;43.00;36.75;;;;;6.03;83.13;102637.75;5022355;28;11624;-71
2022/03/02 00:43:47;;;;;;;;;34.00;30.50;;;;;6.02;83.86;102630.66;5025306;28;11633;-71
2022/03/02 00:46:15;;;;;;;;;36.50;29.75;;;;;6.06;83.51;102632.13;5013175;28;11585;-69
2022/03/02 00:48:42;;;;;;;;;35.75;32.25;;;;;6.05;83.39;102624.19;5012729;28;11557;-71
2022/03/02 00:51:09;;;;;;;;;53.00;40.75;;;;;5.93;82.98;102617.03;5008778;28;11774;-70
2022/03/02 00:53:36;;;;;;;;;51.25;42.25;;;;;5.90;82.75;102622.63;5010350;28;11739;-71
2022/03/02 00:56:02;;;;;;;;;54.50;43.50;;;;;5.94;83.29;102616.03;5003864;28;11625;-71
2022/03/02 00:58:30;;;;;;;;;48.00;42.25;;;;;5.92;83.12;102618.00;5033790;28;11625;-69
2022/03/02 01:00:56;;;;;;;;;44.25;38.75;;;;;5.88;83.22;102614.66;5010999;28;11638;-71
2022/03/02 01:03:23;;;;;;;;;50.75;41.75;;;;;5.93;83.32;102612.50;5029586;28;11674;-70
2022/03/02 01:05:50;;;;;;;;;40.25;37.50;;;;;5.97;83.53;102613.16;5028846;28;11778;-70
2022/03/02 01:08:17;;;;;;;;;41.75;33.50;;;;;5.96;83.35;102615.00;5020691;28;11694;-70
2022/03/02 01:10:44;;;;;;;;;43.00;32.00;;;;;5.88;82.90;102609.28;5021071;28;11611;-70
2022/03/02 01:13:10;;;;;;;;;38.75;32.75;;;;;5.93;83.30;102609.81;5037435;28;11592;-70
2022/03/02 01:15:37;;;;;;;;;37.75;29.75;;;;;5.91;83.18;102606.38;5004029;28;11588;-71
2022/03/02 01:18:03;;;;;;;;;41.00;32.25;;;;;5.93;83.37;102606.25;5038241;28;11649;-69
2022/03/02 01:20:30;;;;;;;;;35.25;33.00;;;;;6.00;83.37;102612.91;5031578;28;11668;-72
2022/03/02 01:22:56;;;;;;;;;41.75;39.50;;;;;5.92;83.04;102615.31;5016348;28;11614;-71
2022/03/02 01:25:23;;;;;;;;;44.75;38.50;;;;;5.90;83.01;102611.88;5007161;28;12303;-72
2022/03/02 01:27:49;;;;;;;;;64.00;50.25;;;;;5.70;83.53;102606.16;5028149;28;11596;-71
2022/03/02 01:30:16;;;;;;;;;63.25;49.25;;;;;5.70;84.38;102608.84;5032662;28;11591;-68
2022/03/02 01:32:43;;;;;;;;;53.75;45.50;;;;;5.68;85.00;102610.75;4996125;28;11592;-71
2022/03/02 01:35:11;;;;;;;;;47.25;42.00;;;;;5.75;85.23;102603.97;5031318;28;11726;-71
2022/03/02 01:37:38;;;;;;;;;52.75;42.75;;;;;5.77;85.23;102601.16;5031945;28;11751;-71
2022/03/02 01:40:09;;;;;;;;;44.75;40.50;;;;;5.82;85.43;102599.84;5033019;28;11636;-70
2022/03/02 01:42:37;;;;;;;;;36.75;32.00;;;;;5.85;85.40;102602.31;5011249;28;12285;-71
2022/03/02 01:45:06;;;;;;;;;38.75;34.25;;;;;5.84;85.34;102588.97;5012323;28;11557;-71
2022/03/02 01:47:32;;;;;;;;;51.00;39.50;;;;;5.86;84.98;102587.03;5017861;28;11705;-70
2022/03/02 01:50:00;;;;;;;;;47.25;41.25;;;;;5.83;84.66;102582.75;5032648;28;11671;-71
2022/03/02 01:52:27;;;;;;;;;61.25;43.75;;;;;5.75;84.23;102582.47;5013796;28;11694;-71
2022/03/02 01:54:53;;;;;;;;;47.75;36.50;;;;;5.74;84.51;102579.91;5012167;28;11635;-71
2022/03/02 01:57:20;;;;;;;;;54.50;44.25;;;;;5.78;84.45;102582.25;5013197;28;11630;-71
2022/03/02 01:59:46;;;;;;;;;42.00;39.25;;;;;5.87;84.76;102578.84;4995313;28;11601;-71
2022/03/02 02:02:13;;;;;;;;;49.75;43.50;;;;;5.78;84.18;102573.31;5010394;28;11625;-71
2022/03/02 02:04:39;;;;;;;;;44.50;36.75;;;;;5.85;84.66;102577.25;5014647;28;11637;-71
2022/03/02 02:07:06;;;;;;;;;51.25;42.00;;;;;5.71;84.90;102575.63;5025180;28;11786;-71
2022/03/02 02:09:32;;;;;;;;;48.75;43.25;;;;;5.70;85.67;102573.03;5028235;28;11584;-71
2022/03/02 02:12:00;;;;;;;;;59.25;48.00;;;;;5.67;85.21;102568.72;5032112;28;11664;-71
2022/03/02 02:14:26;;;;;;;;;58.25;46.25;;;;;5.64;86.23;102568.97;4998737;28;11761;-72
2022/03/02 02:16:53;;;;;;;;;66.75;51.00;;;;;5.69;86.19;102565.94;5032484;28;11685;-70
2022/03/02 02:19:19;;;;;;;;;59.25;48.00;;;;;5.66;85.43;102555.41;5010878;28;11632;-71
2022/03/02 02:21:47;;;;;;;;;52.50;45.25;;;;;5.76;85.67;102560.00;5018974;28;11637;-70
2022/03/02 02:24:14;;;;;;;;;50.25;42.00;;;;;5.79;85.65;102556.22;5032507;28;11742;-70
2022/03/02 02:26:41;;;;;;;;;49.25;41.50;;;;;5.83;85.12;102555.88;5019849;28;11655;-71
2022/03/02 02:29:07;;;;;;;;;62.00;49.75;;;;;5.70;84.39;102548.84;4994504;28;11606;-70
2022/03/02 02:31:34;;;;;;;;;47.75;43.75;;;;;5.69;84.60;102550.66;5010735;28;12395;-72
2022/03/02 02:34:01;;;;;;;;;63.25;45.75;;;;;5.64;84.70;102547.47;4998367;28;12370;-71
2022/03/02 02:36:27;;;;;;;;;57.50;47.50;;;;;5.62;84.19;102545.88;5014298;28;11674;-71
2022/03/02 02:38:54;;;;;;;;;49.25;42.50;;;;;5.59;84.84;102538.06;5014526;28;11626;-70
2022/03/02 02:41:20;;;;;;;;;62.00;46.00;;;;;5.54;84.94;102546.47;5012300;28;11699;-71
2022/03/02 02:43:47;;;;;;;;;59.25;47.75;;;;;5.50;85.67;102544.97;5009099;28;11613;-71
2022/03/02 02:46:14;;;;;;;;;54.50;45.50;;;;;5.57;86.17;102541.72;5023773;28;11689;-70
2022/03/02 02:48:41;;;;;;;;;59.00;46.75;;;;;5.57;85.65;102539.03;5014044;28;11629;-71
2022/03/02 02:51:07;;;;;;;;;60.75;49.25;;;;;5.53;86.14;102540.22;5031316;28;11694;-71
2022/03/02 02:53:34;;;;;;;;;66.00;50.25;;;;;5.53;86.37;102531.31;5032053;28;11717;-71
2022/03/02 02:56:01;;;;;;;;;58.25;48.75;;;;;5.53;86.15;102534.84;5022509;28;11678;-71
2022/03/02 02:58:27;;;;;;;;;56.75;46.75;;;;;5.52;85.88;102524.22;5027139;28;11583;-71
2022/03/02 03:00:54;;;;;;;;;60.50;46.00;;;;;5.47;85.68;102524.56;5031120;28;11618;-71
2022/03/02 03:03:21;;;;;;;;;51.00;45.50;;;;;5.44;86.25;102519.41;5031720;28;11649;-70
2022/03/02 03:05:47;;;;;;;;;61.25;45.75;;;;;5.45;86.42;102517.56;5031326;28;11600;-71
2022/03/02 03:08:14;;;;;;;;;62.25;49.00;;;;;5.47;86.58;102521.88;5031459;28;11677;-72
2022/03/02 03:10:42;;;;;;;;;62.00;45.75;;;;;5.46;86.92;102516.63;5023221;28;11648;-70
2022/03/02 03:13:09;;;;;;;;;57.00;44.50;;;;;5.52;86.79;102517.03;5008288;28;12357;-70
2022/03/02 03:15:38;;;;;;;;;57.00;44.25;;;;;5.63;86.31;102513.53;5031536;28;11615;-71
2022/03/02 03:18:06;;;;;;;;;58.00;48.00;;;;;5.57;85.68;102506.78;5013283;28;11598;-69
2022/03/02 03:20:34;;;;;;;;;68.50;51.25;;;;;5.52;85.55;102508.97;4993831;28;11759;-69
2022/03/02 03:23:01;;;;;;;;;47.50;44.00;;;;;5.67;85.48;102514.13;5011143;28;11609;-71
2022/03/02 03:25:28;;;;;;;;;42.50;38.75;;;;;5.67;84.93;102508.75;5016552;28;11727;-71
2022/03/02 03:27:56;;;;;;;;;58.50;48.00;;;;;5.66;84.74;102504.38;5023545;28;11546;-70
2022/03/02 03:30:24;;;;;;;;;57.00;43.75;;;;;5.72;84.80;102504.78;5030051;28;11703;-71
2022/03/02 03:32:52;;;;;;;;;55.00;46.25;;;;;5.64;84.84;102500.94;4991205;28;11623;-71
2022/03/02 03:35:21;;;;;;;;;57.00;46.00;;;;;5.64;85.25;102499.09;4993819;28;11631;-71
2022/03/02 03:37:47;;;;;;;;;58.75;48.00;;;;;5.67;84.90;102496.19;4995037;28;11658;-71
2022/03/02 03:40:16;;;;;;;;;36.75;34.50;;;;;5.73;84.95;102494.88;5015868;28;11739;-70
2022/03/02 03:42:43;;;;;;;;;46.25;43.25;;;;;5.71;84.90;102492.31;5013133;28;11612;-71
2022/03/02 03:45:12;;;;;;;;;57.50;42.50;;;;;5.70;84.85;102492.41;5030852;28;11700;-71
2022/03/02 03:47:38;;;;;;;;;57.25;44.25;;;;;5.67;85.13;102493.50;5011224;28;11678;-70
2022/03/02 03:50:06;;;;;;;;;39.25;36.25;;;;;5.64;84.76;102487.50;4993329;28;11650;-71
2022/03/02 03:52:33;;;;;;;;;53.50;45.00;;;;;5.69;84.83;102483.50;5005860;28;11615;-71
2022/03/02 03:55:00;;;;;;;;;63.50;47.50;;;;;5.63;84.60;102483.97;4997483;28;11739;-70
2022/03/02 03:57:26;;;;;;;;;57.50;45.75;;;;;5.71;84.49;102480.72;4993731;28;11701;-71
2022/03/02 03:59:53;;;;;;;;;59.75;47.75;;;;;5.67;84.19;102477.38;4993325;28;11764;-71
2022/03/02 04:02:19;;;;;;;;;63.75;50.00;;;;;5.59;84.21;102485.19;5007282;28;12333;-71
2022/03/02 04:04:46;;;;;;;;;62.00;49.75;;;;;5.56;84.13;102478.22;5011910;28;11672;-69
2022/03/02 04:07:12;;;;;;;;;64.75;49.25;;;;;5.49;84.46;102484.16;5029134;28;11781;-71
2022/03/02 04:09:39;;;;;;;;;55.00;46.00;;;;;5.54;84.99;102484.66;5010145;28;11628;-71
2022/03/02 04:12:06;;;;;;;;;58.50;48.50;;;;;5.46;85.07;102482.56;5009027;28;12344;-71
2022/03/02 04:14:33;;;;;;;;;50.00;44.50;;;;;5.52;84.41;102479.41;5010924;28;11735;-71
2022/03/02 04:16:59;;;;;;;;;50.75;45.25;;;;;5.60;84.63;102478.81;5010808;28;11612;-71
2022/03/02 04:19:25;;;;;;;;;48.25;42.75;;;;;5.57;84.75;102474.56;5009770;28;11671;-70
2022/03/02 04:21:52;;;;;;;;;54.75;47.50;;;;;5.58;84.57;102483.47;5008218;28;11690;-71
2022/03/02 04:24:18;;;;;;;;;50.50;43.50;;;;;5.64;84.94;102476.75;5009408;28;11738;-70
2022/03/02 04:26:45;;;;;;;;;55.50;42.25;;;;;5.62;84.62;102470.66;5022918;28;11629;-70
2022/03/02 04:29:11;;;;;;;;;54.00;42.00;;;;;5.67;84.51;102474.69;5030447;28;11703;-71
2022/03/02 04:31:38;;;;;;;;;41.75;31.75;;;;;5.63;85.03;102473.22;5021457;28;11603;-71
2022/03/02 04:34:04;;;;;;;;;46.75;40.00;;;;;5.66;84.88;102470.28;5010160;28;11604;-72
2022/03/02 04:36:31;;;;;;;;;51.25;41.50;;;;;5.60;84.79;102468.09;5030006;28;11690;-69
2022/03/02 04:38:58;;;;;;;;;54.75;44.75;;;;;5.59;84.25;102469.06;5012025;28;11754;-71
2022/03/02 04:41:25;;;;;;;;;61.25;46.50;;;;;5.58;84.21;102456.59;5003337;28;11602;-70
2022/03/02 04:43:52;;;;;;;;;48.75;43.00;;;;;5.51;84.34;102461.59;5030367;28;12214;-71
2022/03/02 04:46:18;;;;;;;;;53.00;41.00;;;;;5.53;83.87;102453.41;5023376;28;11677;-71
2022/03/02 04:48:45;;;;;;;;;51.75;43.25;;;;;5.50;84.25;102450.97;5012843;28;12371;-71
2022/03/02 04:51:11;;;;;;;;;46.25;36.25;;;;;5.52;84.24;102452.56;5007785;28;11623;-70
2022/03/02 04:53:38;;;;;;;;;42.25;34.25;;;;;5.57;83.85;102453.06;5011085;28;11621;-71
2022/03/02 04:56:05;;;;;;;;;67.00;49.00;;;;;5.55;83.70;102452.31;5008215;28;11702;-71
2022/03/02 04:58:31;;;;;;;;;49.75;40.50;;;;;5.54;83.51;102452.44;5030453;28;11734;-71
2022/03/02 05:00:59;;;;;;;;;44.25;42.75;;;;;5.58;83.54;102456.59;5025947;28;11627;-71
2022/03/02 05:03:25;;;;;;;;;45.50;36.75;;;;;5.52;83.31;102449.88;5022528;28;11501;-71
2022/03/02 05:05:52;;;;;;;;;47.25;41.50;;;;;5.57;83.76;102445.00;5025356;28;11587;-71
2022/03/02 05:08:18;;;;;;;;;48.75;37.00;;;;;5.54;83.70;102447.91;5028204;28;11643;-68
2022/03/02 05:10:45;;;;;;;;;56.50;44.00;;;;;5.55;83.67;102444.25;5019580;28;11703;-72
2022/03/02 05:13:11;;;;;;;;;46.50;45.00;;;;;5.47;83.67;102441.31;5010759;28;11670;-72
2022/03/02 05:15:38;;;;;;;;;52.25;41.25;;;;;5.52;84.01;102433.75;5025021;28;11719;-72
2022/03/02 05:18:04;;;;;;;;;40.75;37.50;;;;;5.51;83.63;102445.47;5012469;28;11639;-71
2022/03/02 05:20:31;;;;;;;;;42.75;38.25;;;;;5.54;84.03;102441.69;5008289;28;11653;-72
2022/03/02 05:22:57;;;;;;;;;48.00;39.50;;;;;5.52;83.67;102444.50;5030092;28;11714;-71
2022/03/02 05:25:24;;;;;;;;;50.00;42.00;;;;;5.49;84.00;102435.81;5025482;28;11699;-71
2022/03/02 05:27:51;;;;;;;;;46.25;38.00;;;;;5.49;84.02;102441.19;5025167;28;11636;-71
2022/03/02 05:30:19;;;;;;;;;49.00;41.75;;;;;5.49;83.85;102436.69;5021688;28;11605;-71
2022/03/02 05:32:46;;;;;;;;;42.25;38.50;;;;;5.50;84.23;102442.91;4992368;28;11621;-71
2022/03/02 05:35:13;;;;;;;;;44.25;35.00;;;;;5.50;84.29;102441.06;5009721;28;11730;-71
2022/03/02 05:37:45;;;;;;;;;31.25;27.25;;;;;5.45;84.28;102445.06;5011780;28;11685;-70
2022/03/02 05:40:15;;;;;;;;;40.50;32.00;;;;;5.42;84.43;102435.41;5008785;28;11669;-70
2022/03/02 05:42:42;;;;;;;;;42.25;36.50;;;;;5.46;84.27;102442.28;5011032;28;12371;-71
2022/03/02 05:45:09;;;;;;;;;34.00;30.25;;;;;5.49;83.71;102428.63;5019208;28;11616;-72
2022/03/02 05:47:37;;;;;;;;;36.75;31.75;;;;;5.45;83.71;102437.88;5015435;28;11700;-71
2022/03/02 05:50:07;;;;;;;;;28.50;27.00;;;;;5.45;83.64;102437.88;5011003;28;11649;-71
2022/03/02 05:52:34;;;;;;;;;47.75;35.75;;;;;5.40;83.06;102439.19;5000083;28;11534;-71
2022/03/02 05:55:00;;;;;;;;;35.50;28.25;;;;;5.42;83.33;102437.25;4999059;28;12503;-71
2022/03/02 05:57:26;;;;;;;;;35.75;28.75;;;;;5.41;83.26;102433.69;5014242;28;11577;-71
2022/03/02 05:59:53;;;;;;;;;53.25;44.00;;;;;5.34;82.40;102437.81;5028140;28;11552;-70
2022/03/02 06:02:20;;;;;;;;;53.00;41.75;;;;;5.30;82.11;102432.81;5032610;28;12431;-71
2022/03/02 06:04:47;;;;;;;;;42.50;39.25;;;;;5.28;81.40;102445.50;5011560;28;11593;-71
2022/03/02 06:07:14;;;;;;;;;61.50;49.25;;;;;5.32;81.61;102441.59;5036580;28;11608;-71
2022/03/02 06:09:42;;;;;;;;;38.00;35.00;;;;;5.36;81.66;102445.75;5022226;28;11626;-72
2022/03/02 06:12:10;;;;;;;;;55.75;44.50;;;;;5.31;81.52;102445.25;5042830;28;11590;-71
2022/03/02 06:14:41;;;;;;;;;55.50;44.75;;;;;5.30;80.99;102435.50;5017849;28;11637;-69
2022/03/02 06:17:09;;;;;;;;;57.00;46.75;;;;;5.16;80.28;102440.06;5021550;28;11626;-72
2022/03/02 06:19:36;;;;;;;;;62.25;48.25;;;;;5.30;80.58;102441.72;5037176;28;11675;-71
2022/03/02 06:22:04;;;;;;;;;50.75;39.75;;;;;5.30;80.64;102449.78;5036842;28;11697;-70
2022/03/02 06:24:31;;;;;;;;;48.25;32.75;;;;;5.20;80.32;102438.88;5033756;28;11619;-71
2022/03/02 06:26:58;;;;;;;;;63.50;44.25;;;;;5.15;80.57;102443.72;5028313;28;11623;-70
2022/03/02 06:29:25;;;;;;;;;66.00;47.50;;;;;5.11;80.69;102449.44;5034196;28;11713;-70
2022/03/02 06:31:52;;;;;;;;;49.25;45.75;;;;;5.19;80.79;102449.69;5038391;28;11718;-71
2022/03/02 06:34:18;;;;;;;;;54.75;45.25;;;;;5.13;80.81;102455.53;5021878;28;12412;-70
2022/03/02 06:36:49;;;;;;;;;65.75;50.75;;;;;5.11;80.43;102463.72;5037184;28;11611;-71
2022/03/02 06:39:20;;;;;;;;;57.50;48.00;;;;;5.06;80.22;102467.72;5038914;28;11673;-72
2022/03/02 06:42:16;;;;;;;;;63.75;50.00;;;;;5.12;80.34;102461.88;5022828;28;11601;-70
2022/03/02 06:44:54;;;;;;;;;49.00;44.00;;;;;5.15;80.52;102467.00;5016469;28;11614;-71
2022/03/02 06:47:26;;;;;;;;;62.75;46.75;;;;;5.10;79.97;102459.31;5035075;28;11646;-69
2022/03/02 06:50:06;;;;;;;;;56.75;46.25;;;;;5.17;80.14;102460.56;5014321;28;11701;-71
2022/03/02 06:52:37;;;;;;;;;57.50;45.50;;;;;5.17;80.21;102462.38;5033599;28;11695;-69
2022/03/02 06:55:07;;;;;;;;;50.50;39.75;;;;;5.72;80.04;102464.47;5021036;28;11609;-70
2022/03/02 06:57:34;;;;;;;;;58.25;44.75;;;;;5.99;78.28;102464.22;5026522;28;11692;-71
2022/03/02 07:00:14;;;;;;;;;43.25;40.00;;;;;5.87;78.41;102470.47;4988192;28;11648;-71
2022/03/02 07:02:49;;;;;;;;;46.50;42.25;;;;;5.70;78.96;102469.13;5045544;23;11643;-72
2022/03/02 07:05:17;;;;;;;;;55.50;47.00;;;;;5.73;79.46;102465.34;4999688;28;11597;-71
2022/03/02 07:07:44;;;;;;;;;47.75;42.75;;;;;6.02;78.39;102463.09;5004451;28;12478;-71
2022/03/02 07:10:12;;;;;;;;;41.50;35.75;;;;;6.12;77.46;102450.66;5010881;28;11607;-74
2022/03/02 07:12:39;;;;;;;;;49.25;43.75;;;;;6.15;77.02;102453.09;5010548;28;11620;-71
2022/03/02 07:15:07;;;;;;;;;50.75;43.75;;;;;6.15;76.74;102456.63;4993237;28;11620;-71
2022/03/02 07:17:34;;;;;;;;;51.00;42.75;;;;;6.08;75.99;102460.78;4991952;28;11693;-71
2022/03/02 07:20:03;;;;;;;;;51.00;44.50;;;;;5.82;76.08;102460.09;5005190;28;11742;-71
2022/03/02 07:22:53;;;;;;;;;51.50;45.25;;;;;5.84;78.62;102465.34;5011074;28;11727;-69
2022/03/02 07:25:29;;;;;;;;;59.50;49.25;;;;;5.58;76.62;102467.34;5006666;28;12480;-70
2022/03/02 07:27:57;;;;;;;;;55.25;46.50;;;;;5.70;77.74;102460.16;5011068;28;11772;-71
2022/03/02 07:30:26;;;;;;;;;51.50;45.00;;;;;5.79;76.97;102460.34;5008387;28;11715;-71
2022/03/02 07:32:55;;;;;;;;;55.50;41.75;;;;;5.88;76.87;102465.00;5002298;28;11594;-72
2022/03/02 07:35:24;;;;;;;;;51.75;39.00;;;;;5.98;76.41;102472.41;4986826;28;11724;-71
2022/03/02 07:37:54;;;;;;;;;56.00;42.25;;;;;6.02;76.24;102466.66;4991493;28;11758;-71
2022/03/02 07:40:20;;;;;;;;;50.50;43.00;;;;;6.01;75.95;102466.78;4993713;28;11753;-70
2022/03/02 07:42:47;;;;;;;;;41.75;38.00;;;;;6.00;75.76;102471.28;5010741;28;11609;-71
2022/03/02 07:45:13;;;;;;;;;50.75;42.00;;;;;5.93;75.68;102477.25;5006612;28;11639;-71
2022/03/02 07:47:40;;;;;;;;;53.25;44.50;;;;;6.02;75.79;102481.94;5008668;28;11648;-71
2022/03/02 07:50:07;;;;;;;;;55.50;44.25;;;;;5.94;75.52;102478.94;5004090;28;11695;-71
2022/03/02 07:52:37;;;;;;;;;62.50;48.50;;;;;5.88;75.43;102482.94;5010974;28;11641;-71
2022/03/02 07:55:09;;;;;;;;;64.50;52.00;;;;;6.01;75.11;102480.22;5010481;28;11734;-71
2022/03/02 07:57:39;;;;;;;;;53.25;44.00;;;;;6.53;74.58;102479.66;4989737;28;11635;-71
2022/03/02 08:00:06;;;;;;;;;65.25;49.50;;;;;6.38;73.38;102476.34;4995451;28;11883;-71
2022/03/02 08:02:33;;;;;;;;;52.75;45.50;;;;;6.64;73.45;102479.63;4991917;28;11636;-70
2022/03/02 08:05:01;;;;;;;;;51.00;42.50;;;;;6.91;71.85;102478.38;4992710;28;11670;-71
2022/03/02 08:07:27;;;;;;;;;55.75;44.75;;;;;7.06;71.36;102479.84;4981143;28;11712;-72
2022/03/02 08:09:54;;;;;;;;;61.50;50.00;;;;;7.12;70.68;102484.72;4980916;28;11607;-71
2022/03/02 08:12:23;;;;;;;;;53.00;45.00;;;;;7.44;71.09;102473.13;4990879;28;11630;-72
2022/03/02 08:14:50;;;;;;;;;57.75;46.25;;;;;7.52;70.02;102474.19;4991952;28;11604;-71
2022/03/02 08:17:18;;;;;;;;;65.50;50.25;;;;;7.57;67.99;102481.88;4992501;28;11658;-72
2022/03/02 08:19:46;;;;;;;;;52.25;44.50;;;;;7.87;67.94;102481.09;4993850;28;12476;-72
2022/03/02 08:22:15;;;;;;;;;49.50;45.00;;;;;7.98;66.66;102487.31;4993879;28;11847;-71
2022/03/02 08:24:50;;;;;;;;;56.75;47.00;;;;;8.03;65.60;102485.06;4998847;28;11707;-71
2022/03/02 08:27:17;;;;;;;;;59.00;50.25;;;;;8.03;64.84;102485.06;4998888;28;11731;-71
2022/03/02 08:29:52;;;;;;;;;24.00;24.00;;;;;8.24;65.17;102479.66;4994929;28;11758;-71
2022/03/02 08:32:19;;;;;;;;;56.75;47.00;;;;;8.23;65.12;102482.50;4996481;28;11643;-71
2022/03/02 08:34:46;;;;;;;;;60.00;47.50;;;;;8.46;64.09;102483.22;5007890;28;11691;-70
2022/03/02 08:37:17;;;;;;;;;70.75;53.25;;;;;8.25;63.01;102486.75;5007512;28;11582;-70
2022/03/02 08:39:45;;;;;;;;;65.75;52.25;;;;;8.45;63.18;102485.06;4991537;28;11604;-71
2022/03/02 08:42:12;;;;;;;;;57.25;47.00;;;;;8.72;62.97;102489.00;4998929;28;11596;-71
2022/03/02 08:44:39;;;;;;;;;61.50;46.50;;;;;8.72;62.11;102478.22;5001436;28;11558;-70
2022/03/02 08:47:06;;;;;;;;;55.75;46.00;;;;;8.52;63.32;102477.28;5004254;28;11590;-71
2022/03/02 08:49:33;;;;;;;;;62.50;48.75;;;;;9.00;63.29;102473.88;5003180;28;11607;-69
2022/03/02 08:52:00;;;;;;;;;65.00;48.00;;;;;9.19;61.10;102472.06;4996227;28;11697;-71
2022/03/02 08:54:39;;;;;;;;;60.50;45.25;;;;;9.20;60.89;102471.09;5004771;28;11636;-69
2022/03/02 08:57:06;;;;;;;;;48.75;43.75;;;;;9.72;59.80;102473.53;4986670;28;12571;-71
2022/03/02 08:59:34;;;;;;;;;58.50;46.50;;;;;9.47;58.20;102470.41;5003568;28;12644;-70
2022/03/02 09:02:03;;;;;;;;;59.25;46.50;;;;;9.23;57.75;102468.09;5000941;28;11638;-71
2022/03/02 09:04:33;;;;;;;;;49.25;40.25;;;;;9.78;57.80;102467.53;5003965;28;11609;-71
2022/03/02 09:07:03;;;;;;;;;44.00;41.75;;;;;9.75;55.23;102465.13;4987055;28;11587;-71
2022/03/02 09:09:29;;;;;;;;;59.00;48.00;;;;;9.65;57.20;102459.69;4993289;28;11671;-70
2022/03/02 09:11:56;;;;;;;;;55.50;47.50;;;;;9.69;56.48;102458.44;5003542;28;11794;-71
2022/03/02 09:14:24;;;;;;;;;40.25;37.50;;;;;10.06;56.54;102453.09;5004112;28;11714;-69
2022/03/02 09:16:51;;;;;;;;;55.00;43.00;;;;;10.25;56.48;102451.38;5003111;28;12430;-69
2022/03/02 09:19:18;;;;;;;;;46.00;39.50;;;;;10.39;54.75;102446.31;5010529;28;11654;-72
2022/03/02 09:21:45;;;;;;;;;58.25;43.25;;;;;10.39;54.48;102445.47;4999455;28;11688;-69
2022/03/02 09:24:12;;;;;;;;;44.75;39.00;;;;;10.19;54.01;102455.50;4994509;28;11730;-70
2022/03/02 09:26:40;;;;;;;;;53.00;44.00;;;;;9.82;54.67;102447.31;4998585;28;11565;-69
2022/03/02 09:29:07;;;;;;;;;46.25;40.25;;;;;10.26;53.88;102443.09;4994891;28;11715;-69
2022/03/02 09:31:35;;;;;;;;;56.00;44.25;;;;;10.07;54.69;102441.28;5000433;28;11581;-71
2022/03/02 09:34:07;;;;;;;;;55.50;43.25;;;;;10.02;53.83;102440.88;4997160;28;11733;-69
2022/03/02 09:36:36;;;;;;;;;55.75;45.00;;;;;10.22;54.30;102439.00;4995637;28;11586;-71
2022/03/02 09:39:08;;;;;;;;;48.75;41.25;;;;;10.32;54.36;102431.69;4984307;28;11547;-69
2022/03/02 09:42:31;;;;;;;;;53.00;43.75;;;;;10.24;56.12;102428.88;4996638;28;11305;-72
2022/03/02 09:45:08;;;;;;;;;41.75;36.00;;;;;10.48;53.92;102431.91;4913479;29;11641;-69
2022/03/02 09:47:45;;;;;;;;;46.50;41.50;;;;;10.59;54.38;102428.13;4997086;28;11377;-69
2022/03/02 09:50:14;;;;;;;;;57.75;48.50;;;;;10.01;58.45;102432.91;4987726;28;11569;-69
2022/03/02 09:52:44;;;;;;;;;54.75;46.50;;;;;10.06;58.18;102430.59;4998766;28;12452;-70
2022/03/02 09:55:15;;;;;;;;;59.00;46.00;;;;;10.13;58.50;102429.00;4980891;28;12249;-70
2022/03/02 09:57:46;;;;;;;;;55.25;45.25;;;;;10.18;59.69;102432.16;4999480;28;11561;-71
2022/03/02 10:00:14;;;;;;;;;55.50;43.25;;;;;10.41;58.73;102422.69;4985141;28;11492;-71
2022/03/02 10:02:43;;;;;;;;;58.50;47.00;;;;;10.48;59.01;102426.50;4970711;28;11611;-70
2022/03/02 10:05:15;;;;;;;;;49.25;41.25;;;;;10.17;58.77;102425.88;5000898;28;11550;-72
2022/03/02 10:07:52;;;;;;;;;58.00;47.25;;;;;10.42;57.99;102429.81;4996278;28;12416;-69
2022/03/02 10:10:23;;;;;;;;;56.00;46.50;;;;;10.07;58.18;102427.75;4995523;28;11554;-70
2022/03/02 10:13:01;;;;;;;;;65.25;51.50;;;;;10.11;59.16;102441.84;4994133;28;12359;-71
2022/03/02 10:15:29;;;;;;;;;60.75;48.00;;;;;9.81;59.51;102430.22;4995779;28;11617;-70
2022/03/02 10:18:04;;;;;;;;;46.25;40.75;;;;;9.81;59.72;102434.78;4998688;28;11746;-71
2022/03/02 10:20:34;;;;;;;;;62.00;47.00;;;;;9.81;58.33;102432.06;4998364;28;12330;-71
2022/03/02 10:23:35;;;;;;;;;39.25;34.25;;;;;10.09;57.41;102427.59;4992397;28;11592;-70
2022/03/02 10:26:08;;;;;;;;;57.25;47.00;;;;;9.96;58.26;102422.53;4984308;28;11661;-71
2022/03/02 10:29:00;;;;;;;;;56.50;46.75;;;;;10.28;57.99;102416.75;4994420;28;11587;-71
2022/03/02 10:31:58;;;;;;;;;44.75;36.75;;;;;10.33;55.03;102417.16;4978735;28;11575;-70
2022/03/02 10:34:25;;;;;;;;;47.50;42.50;;;;;10.32;51.56;102420.00;4999696;28;11431;-71
2022/03/02 10:37:04;;;;;;;;;36.00;27.75;;;;;10.14;52.21;102425.28;4995356;28;11553;-70
2022/03/02 10:39:52;;;;;;;;;51.25;40.50;;;;;9.92;51.29;102426.53;4993905;28;10944;-70
2022/03/02 10:42:22;;;;;;;;;45.00;36.75;;;;;9.99;50.26;102416.81;4982422;28;11502;-70
2022/03/02 10:44:56;;;;;;;;;46.00;40.50;;;;;10.08;51.82;102412.34;4998066;28;11566;-73
2022/03/02 10:47:25;;;;;;;;;58.25;44.00;;;;;10.09;53.67;102414.91;4978579;28;11518;-71
2022/03/02 10:49:52;;;;;;;;;53.50;43.50;;;;;10.16;54.81;102407.94;4998420;28;11772;-71
2022/03/02 10:52:21;;;;;;;;;45.00;39.50;;;;;10.41;55.30;102408.31;4981541;28;11578;-74
2022/03/02 10:54:49;;;;;;;;;50.25;42.75;;;;;10.25;54.80;102400.81;4992696;28;11582;-72
2022/03/02 10:57:18;;;;;;;;;36.00;33.50;;;;;10.42;53.56;102402.72;4985188;28;11589;-74
2022/03/02 10:59:45;;;;;;;;;45.25;40.00;;;;;10.23;53.05;102401.97;4998073;28;11043;-70
2022/03/02 11:02:11;;;;;;;;;42.50;39.75;;;;;10.14;50.81;102404.50;4999608;28;11338;-70
2022/03/02 11:04:43;;;;;;;;;41.00;36.50;;;;;10.23;49.60;102402.81;5001527;28;11155;-71
2022/03/02 11:07:14;;;;;;;;;37.00;33.50;;;;;10.24;49.08;102395.53;5005322;28;11091;-70
2022/03/02 11:09:51;;;;;;;;;44.25;39.25;;;;;10.20;48.26;102392.25;5001893;28;11131;-71
2022/03/02 11:12:20;;;;;;;;;40.75;39.00;;;;;10.19;48.83;102395.97;4997140;28;11636;-75
2022/03/02 11:15:02;;;;;;;;;39.00;33.00;;;;;10.25;49.64;102391.84;4995027;28;11743;-75
2022/03/02 11:17:29;;;;;;;;;43.00;37.25;;;;;10.30;48.56;102390.38;4997919;28;11091;-72
2022/03/02 11:19:57;;;;;;;;;41.50;36.50;;;;;9.94;48.83;102392.06;4996990;28;11191;-70
2022/03/02 11:22:26;;;;;;;;;46.25;41.00;;;;;9.96;48.55;102392.75;4996118;28;11638;-70
2022/03/02 11:24:55;;;;;;;;;41.50;36.25;;;;;10.01;48.10;102385.03;4995797;28;11577;-74